Time;durP1;ratioP1;P1;durP2;ratioP2;P2;SDS_P1;SDS_P2;PMS_P1;PMS_P2;Temp;Humidity;BMP_temperature;BMP_pressure;BME280_temperature;BME280_humidity;BME280_pressure;Samples;Min_cycle;Max_cycle;Signal;HPM_P1;HPM_P2
2024/01/06 00:01:16;;;;;;;124.22;54.95;;;16.10;68.80;;;;;;4905508;28;91970;-84
2024/01/06 00:03:42;;;;;;;122.13;55.05;;;16.10;69.00;;;;;;4905796;28;90044;-86
2024/01/06 00:06:07;;;;;;;122.15;54.88;;;16.10;69.00;;;;;;4904014;28;89940;-85
2024/01/06 00:08:33;;;;;;;121.97;54.63;;;16.10;69.10;;;;;;4906027;28;93238;-86
2024/01/06 00:11:02;;;;;;;124.30;55.15;;;16.10;69.00;;;;;;4907476;28;91309;-85
2024/01/06 00:13:28;;;;;;;121.75;54.97;;;16.10;69.00;;;;;;4908613;28;89763;-86
2024/01/06 00:15:54;;;;;;;120.47;54.53;;;16.10;69.10;;;;;;4906899;28;89360;-86
2024/01/06 00:18:19;;;;;;;122.38;55.00;;;16.10;69.10;;;;;;4900620;28;94352;-86
2024/01/06 00:20:45;;;;;;;122.20;54.65;;;16.00;69.20;;;;;;4901107;28;91852;-85
2024/01/06 00:23:10;;;;;;;121.35;54.25;;;16.00;69.30;;;;;;4903925;28;89334;-87
2024/01/06 00:25:36;;;;;;;120.47;54.40;;;16.00;69.10;;;;;;4908204;28;87959;-86
2024/01/06 00:28:02;;;;;;;120.63;54.47;;;16.00;69.30;;;;;;4909068;28;90431;-86
2024/01/06 00:30:27;;;;;;;121.03;54.75;;;16.00;69.10;;;;;;4908836;28;92181;-87
2024/01/06 00:32:53;;;;;;;122.82;54.72;;;15.90;69.20;;;;;;4907213;28;91021;-86
2024/01/06 00:35:19;;;;;;;121.47;54.58;;;15.90;69.30;;;;;;4907347;28;89131;-85
2024/01/06 00:37:45;;;;;;;120.30;54.35;;;15.90;69.30;;;;;;4915760;28;91883;-84
2024/01/06 00:40:11;;;;;;;121.57;54.50;;;15.90;69.30;;;;;;4925727;28;91762;-85
2024/01/06 00:42:36;;;;;;;121.38;54.92;;;15.80;69.30;;;;;;4905974;28;90175;-86
2024/01/06 00:45:04;;;;;;;121.70;54.35;;;15.90;69.40;;;;;;4907997;28;89630;-86
2024/01/06 00:47:29;;;;;;;121.45;54.35;;;15.80;69.30;;;;;;4906358;28;93359;-85
2024/01/06 00:49:55;;;;;;;121.20;54.50;;;15.80;69.20;;;;;;4907297;28;89302;-78
2024/01/06 00:52:20;;;;;;;121.32;54.58;;;15.80;69.50;;;;;;4930746;28;88998;-81
2024/01/06 00:54:47;;;;;;;120.65;54.55;;;15.80;69.40;;;;;;4934131;28;89097;-79
2024/01/06 00:57:12;;;;;;;121.50;54.60;;;15.80;69.30;;;;;;4934079;28;93936;-84
2024/01/06 00:59:38;;;;;;;120.90;54.75;;;15.70;69.20;;;;;;4929106;28;93361;-86
2024/01/06 01:02:04;;;;;;;120.45;54.42;;;15.70;69.30;;;;;;4905337;28;90125;-84
2024/01/06 01:04:29;;;;;;;120.90;54.47;;;15.70;69.20;;;;;;4904060;28;90294;-85
2024/01/06 01:06:55;;;;;;;120.78;54.38;;;15.70;69.50;;;;;;4904005;28;92415;-85
2024/01/06 01:09:21;;;;;;;120.60;54.10;;;15.70;69.40;;;;;;4904443;28;92239;-84
2024/01/06 01:11:46;;;;;;;120.57;54.25;;;15.70;69.60;;;;;;4907251;28;90127;-85
2024/01/06 01:14:12;;;;;;;120.80;54.13;;;15.60;69.50;;;;;;4907170;28;88126;-85
2024/01/06 01:16:38;;;;;;;120.72;54.08;;;15.60;69.40;;;;;;4907143;28;93277;-83
2024/01/06 01:19:03;;;;;;;119.47;53.97;;;15.60;69.60;;;;;;4906923;28;92060;-85
2024/01/06 01:21:29;;;;;;;120.25;54.03;;;15.60;69.60;;;;;;4904577;28;89791;-84
2024/01/06 01:23:54;;;;;;;119.45;53.83;;;15.60;69.50;;;;;;4906706;28;89666;-84
2024/01/06 01:26:20;;;;;;;121.60;54.08;;;15.60;69.60;;;;;;4906302;28;92818;-85
2024/01/06 01:28:46;;;;;;;120.05;53.97;;;15.60;69.70;;;;;;4909279;28;92618;-84
2024/01/06 01:31:13;;;;;;;120.18;54.30;;;15.60;69.70;;;;;;4917136;28;89315;-85
2024/01/06 01:33:38;;;;;;;120.45;54.13;;;15.60;69.90;;;;;;4904939;28;89453;-85
2024/01/06 01:36:04;;;;;;;120.07;54.30;;;15.60;69.50;;;;;;4905267;28;92028;-85
2024/01/06 01:38:30;;;;;;;120.55;54.45;;;15.50;69.90;;;;;;4906903;28;94202;-84
2024/01/06 01:40:56;;;;;;;122.07;54.17;;;15.50;69.80;;;;;;4904574;28;89427;-85
2024/01/06 01:43:23;;;;;;;120.20;54.25;;;15.50;70.00;;;;;;4907711;28;89327;-86
2024/01/06 01:45:52;;;;;;;120.15;54.00;;;15.50;70.00;;;;;;4901005;28;91699;-85
2024/01/06 01:48:23;;;;;;;120.32;54.15;;;15.50;69.90;;;;;;4919585;28;93653;-85
2024/01/06 01:50:49;;;;;;;121.07;54.50;;;15.50;70.00;;;;;;4902363;28;89592;-85
2024/01/06 01:53:15;;;;;;;120.45;54.28;;;15.40;69.80;;;;;;4910458;28;89664;-85
2024/01/06 01:55:42;;;;;;;119.55;54.10;;;15.50;70.10;;;;;;4920418;28;93092;-86
2024/01/06 01:58:08;;;;;;;119.05;53.88;;;15.40;70.10;;;;;;4911099;28;91791;-85
2024/01/06 02:00:34;;;;;;;119.95;53.97;;;15.40;70.20;;;;;;4907131;28;89561;-86
2024/01/06 02:03:02;;;;;;;120.43;54.13;;;15.40;70.40;;;;;;4905825;28;90380;-86
2024/01/06 02:05:28;;;;;;;120.05;54.05;;;15.40;70.20;;;;;;4908698;28;93252;-85
2024/01/06 02:07:54;;;;;;;119.63;54.05;;;15.40;70.30;;;;;;4909447;28;92745;-85
2024/01/06 02:10:20;;;;;;;119.40;54.05;;;15.30;70.40;;;;;;4907355;28;91169;-86
2024/01/06 02:12:45;;;;;;;119.88;54.10;;;15.40;70.30;;;;;;4911498;28;89286;-83
2024/01/06 02:15:11;;;;;;;122.20;54.05;;;15.30;70.30;;;;;;4920744;28;92987;-84
2024/01/06 02:17:38;;;;;;;120.18;54.13;;;15.30;70.30;;;;;;4907288;28;91594;-83
2024/01/06 02:20:06;;;;;;;118.32;53.63;;;15.30;70.30;;;;;;4907008;28;88943;-86
2024/01/06 02:22:34;;;;;;;118.32;53.63;;;15.20;70.60;;;;;;4925479;28;89731;-84
2024/01/06 02:24:59;;;;;;;119.32;53.90;;;15.20;70.40;;;;;;4909264;28;92324;-83
2024/01/06 02:27:25;;;;;;;118.93;53.83;;;15.20;70.70;;;;;;4907729;28;93167;-83
2024/01/06 02:29:50;;;;;;;120.40;54.10;;;15.20;70.20;;;;;;4908289;28;89110;-83
2024/01/06 02:32:16;;;;;;;118.22;53.60;;;15.20;70.60;;;;;;4910677;28;89031;-83
2024/01/06 02:34:42;;;;;;;119.75;54.05;;;15.20;70.60;;;;;;4917760;28;93343;-82
2024/01/06 02:37:07;;;;;;;118.13;53.58;;;15.20;70.40;;;;;;4912010;28;93206;-82
2024/01/06 02:39:33;;;;;;;118.35;53.65;;;15.20;70.40;;;;;;4909365;28;90035;-82
2024/01/06 02:41:59;;;;;;;119.13;54.08;;;15.20;70.60;;;;;;4911906;28;89543;-83
2024/01/06 02:44:24;;;;;;;118.95;53.75;;;15.10;70.70;;;;;;4910890;28;92824;-83
2024/01/06 02:46:50;;;;;;;118.78;54.00;;;15.20;70.80;;;;;;4923747;28;92525;-82
2024/01/06 02:49:15;;;;;;;119.07;53.85;;;15.20;70.50;;;;;;4911848;28;89026;-82
2024/01/06 02:51:41;;;;;;;120.07;53.60;;;15.10;70.80;;;;;;4910771;28;88535;-82
2024/01/06 02:54:07;;;;;;;118.75;53.75;;;15.20;71.00;;;;;;4908460;28;93687;-82
2024/01/06 02:56:32;;;;;;;119.88;53.83;;;15.20;70.80;;;;;;4923361;28;92174;-83
2024/01/06 02:58:58;;;;;;;120.00;54.00;;;15.20;70.70;;;;;;4926326;28;90053;-82
2024/01/06 03:01:23;;;;;;;118.53;53.58;;;15.10;70.90;;;;;;4912099;28;89200;-83
2024/01/06 03:03:49;;;;;;;119.40;53.90;;;15.10;70.90;;;;;;4927266;28;92864;-82
2024/01/06 03:06:15;;;;;;;119.80;54.08;;;15.10;71.00;;;;;;4907455;28;91878;-82
2024/01/06 03:08:40;;;;;;;118.93;53.63;;;15.10;71.00;;;;;;4912191;28;89325;-82
2024/01/06 03:11:06;;;;;;;118.78;53.50;;;15.10;71.00;;;;;;4914636;28;89090;-82
2024/01/06 03:13:32;;;;;;;120.57;54.00;;;15.00;71.10;;;;;;4910616;28;89563;-82
2024/01/06 03:15:57;;;;;;;118.28;53.28;;;15.10;71.20;;;;;;4925672;28;91836;-83
2024/01/06 03:18:23;;;;;;;119.80;53.83;;;15.00;71.30;;;;;;4911960;28;89983;-82
2024/01/06 03:20:48;;;;;;;119.30;53.55;;;15.00;71.30;;;;;;4909157;28;89284;-82
2024/01/06 03:23:14;;;;;;;119.13;53.40;;;15.00;71.30;;;;;;4913136;28;93002;-86
2024/01/06 03:25:40;;;;;;;118.30;53.35;;;15.00;71.10;;;;;;4915050;28;90830;-87
2024/01/06 03:28:05;;;;;;;119.88;53.45;;;15.00;71.40;;;;;;4923297;28;88816;-85
2024/01/06 03:30:31;;;;;;;120.65;53.83;;;15.00;71.30;;;;;;4938000;28;88613;-85
2024/01/06 03:32:57;;;;;;;118.60;53.78;;;15.00;71.30;;;;;;4942241;28;91530;-85
2024/01/06 03:35:23;;;;;;;118.95;53.88;;;15.00;71.40;;;;;;4928878;28;92764;-86
2024/01/06 03:37:48;;;;;;;119.15;53.95;;;15.00;71.60;;;;;;4911457;28;88825;-86
2024/01/06 03:40:14;;;;;;;119.38;54.25;;;15.00;71.50;;;;;;4907968;28;88395;-85
2024/01/06 03:42:40;;;;;;;118.80;53.83;;;15.00;71.40;;;;;;4920152;28;92767;-86
2024/01/06 03:45:06;;;;;;;119.05;53.47;;;15.00;71.70;;;;;;4911333;28;92946;-87
2024/01/06 03:47:31;;;;;;;119.28;53.67;;;14.90;71.60;;;;;;4911234;28;90287;-86
2024/01/06 03:49:57;;;;;;;119.88;54.05;;;14.90;71.60;;;;;;4912111;28;88863;-86
2024/01/06 03:52:23;;;;;;;118.88;53.72;;;14.90;71.50;;;;;;4914005;28;93101;-86
2024/01/06 03:54:48;;;;;;;118.10;53.58;;;14.90;71.50;;;;;;4911791;28;93578;-86
2024/01/06 03:57:14;;;;;;;118.90;53.55;;;14.90;71.70;;;;;;4911127;28;89933;-86
2024/01/06 03:59:40;;;;;;;118.53;53.65;;;14.90;71.90;;;;;;4910739;28;89725;-86
2024/01/06 04:02:05;;;;;;;121.20;54.20;;;14.90;71.70;;;;;;4904580;28;92206;-86
2024/01/06 04:04:31;;;;;;;119.95;53.95;;;14.90;71.60;;;;;;4900297;28;91502;-86
2024/01/06 04:06:56;;;;;;;119.75;53.97;;;14.90;71.70;;;;;;4906131;28;89254;-85
2024/01/06 04:09:22;;;;;;;118.93;53.80;;;14.80;72.40;;;;;;4922743;28;89323;-87
2024/01/06 04:11:48;;;;;;;119.63;53.72;;;14.90;71.80;;;;;;4905233;28;93715;-85
2024/01/06 04:14:13;;;;;;;118.72;53.72;;;14.90;71.60;;;;;;4909771;28;90617;-86
2024/01/06 04:16:39;;;;;;;118.55;53.83;;;14.90;71.80;;;;;;4906888;28;89062;-86
2024/01/06 04:19:07;;;;;;;119.47;53.88;;;14.90;72.00;;;;;;4908039;28;89823;-84
2024/01/06 04:21:33;;;;;;;118.95;54.08;;;14.90;71.80;;;;;;4901907;28;89781;-86
2024/01/06 04:23:58;;;;;;;118.57;53.90;;;14.90;71.80;;;;;;4899197;28;92251;-85
2024/01/06 04:26:25;;;;;;;118.82;53.95;;;14.90;71.80;;;;;;4908609;28;89824;-86
2024/01/06 04:28:50;;;;;;;118.57;53.58;;;14.90;71.90;;;;;;4904296;28;88929;-86
2024/01/06 04:31:16;;;;;;;118.43;53.53;;;14.80;71.90;;;;;;4905844;28;92988;-87
2024/01/06 04:33:41;;;;;;;118.97;53.53;;;14.90;72.00;;;;;;4908648;28;92636;-84
2024/01/06 04:36:07;;;;;;;118.55;53.63;;;14.80;72.10;;;;;;4921298;28;89962;-84
2024/01/06 04:38:33;;;;;;;118.47;53.58;;;14.80;72.00;;;;;;4908379;28;89709;-84
2024/01/06 04:40:58;;;;;;;118.30;53.63;;;14.80;72.20;;;;;;4903700;28;90528;-85
2024/01/06 04:43:24;;;;;;;117.93;53.20;;;14.80;72.10;;;;;;4902040;28;89754;-85
2024/01/06 04:45:50;;;;;;;119.55;53.53;;;14.80;72.10;;;;;;4904788;28;89469;-85
2024/01/06 04:48:18;;;;;;;118.43;53.60;;;14.80;72.10;;;;;;4904053;28;89105;-86
2024/01/06 04:50:44;;;;;;;118.80;53.67;;;14.80;72.10;;;;;;4905707;28;90391;-86
2024/01/06 04:53:10;;;;;;;118.85;53.65;;;14.80;72.30;;;;;;4903021;28;89537;-86
2024/01/06 04:55:35;;;;;;;118.93;53.78;;;14.80;72.30;;;;;;4903821;28;89104;-86
2024/01/06 04:58:01;;;;;;;119.60;54.08;;;14.80;72.20;;;;;;4907824;28;89247;-86
2024/01/06 05:00:27;;;;;;;118.57;53.63;;;14.80;72.40;;;;;;4905473;28;94723;-86
2024/01/06 05:02:52;;;;;;;119.40;53.55;;;14.80;72.30;;;;;;4908044;28;90735;-85
2024/01/06 05:05:18;;;;;;;119.00;53.72;;;14.80;72.30;;;;;;4905858;28;89060;-86
2024/01/06 05:07:44;;;;;;;117.85;53.33;;;14.80;72.50;;;;;;4904915;28;89787;-86
2024/01/06 05:10:09;;;;;;;118.55;53.90;;;14.80;72.50;;;;;;4906820;28;92839;-85
2024/01/06 05:12:35;;;;;;;118.38;53.60;;;14.70;72.40;;;;;;4905917;28;89182;-86
2024/01/06 05:15:00;;;;;;;117.50;53.53;;;14.70;72.70;;;;;;4908023;28;89751;-86
2024/01/06 05:17:26;;;;;;;119.63;53.67;;;14.80;72.60;;;;;;4925053;28;88394;-86
2024/01/06 05:19:52;;;;;;;118.78;53.67;;;14.80;72.70;;;;;;4902241;28;91940;-85
2024/01/06 05:22:18;;;;;;;119.85;53.78;;;14.70;72.70;;;;;;4900770;28;90069;-85
2024/01/06 05:24:44;;;;;;;119.07;53.67;;;14.70;72.70;;;;;;4905322;28;90708;-85
2024/01/06 05:27:10;;;;;;;118.60;53.75;;;14.80;72.80;;;;;;4908287;28;89966;-86
2024/01/06 05:29:35;;;;;;;118.03;53.38;;;14.80;72.70;;;;;;4914333;28;90015;-86
2024/01/06 05:32:01;;;;;;;120.22;53.92;;;14.70;72.50;;;;;;4922695;28;92068;-86
2024/01/06 05:34:27;;;;;;;118.82;53.90;;;14.70;72.60;;;;;;4912579;28;89074;-86
2024/01/06 05:36:53;;;;;;;117.95;53.65;;;14.80;72.60;;;;;;4926136;28;89184;-85
2024/01/06 05:39:19;;;;;;;118.93;53.60;;;14.80;72.90;;;;;;4928954;28;92366;-86
2024/01/06 05:41:44;;;;;;;118.50;53.75;;;14.80;73.10;;;;;;4928206;28;92827;-86
2024/01/06 05:44:10;;;;;;;118.70;53.63;;;14.80;73.30;;;;;;4911443;28;93746;-87
2024/01/06 05:46:36;;;;;;;118.97;53.67;;;14.80;73.20;;;;;;4912282;28;89031;-87
2024/01/06 05:49:02;;;;;;;119.20;54.05;;;14.80;73.20;;;;;;4920886;28;95299;-87
2024/01/06 05:51:27;;;;;;;119.05;54.05;;;14.80;73.10;;;;;;4908936;28;90807;-87
2024/01/06 05:53:54;;;;;;;118.03;53.85;;;14.80;73.20;;;;;;4908151;28;89328;-85
2024/01/06 05:56:25;;;;;;;119.38;53.83;;;14.80;73.30;;;;;;4912352;28;89018;-86
2024/01/06 05:58:50;;;;;;;119.00;54.07;;;14.90;73.30;;;;;;4908389;28;90479;-85
2024/01/06 06:01:16;;;;;;;119.72;53.78;;;14.80;72.90;;;;;;4913444;28;92385;-86
2024/01/06 06:03:43;;;;;;;119.28;54.08;;;14.80;73.10;;;;;;4942685;28;88618;-86
2024/01/06 06:06:08;;;;;;;117.90;53.55;;;14.80;73.00;;;;;;4942598;28;87766;-86
2024/01/06 06:08:34;;;;;;;118.75;53.88;;;14.90;73.10;;;;;;4925439;28;91228;-86
2024/01/06 06:11:05;;;;;;;118.88;53.78;;;14.80;73.10;;;;;;4925224;28;90471;-85
2024/01/06 06:13:31;;;;;;;117.90;53.40;;;14.80;73.10;;;;;;4916664;28;89736;-87
2024/01/06 06:15:57;;;;;;;118.20;53.35;;;14.80;73.10;;;;;;4915408;28;89300;-86
2024/01/06 06:18:23;;;;;;;118.35;53.65;;;14.80;73.10;;;;;;4910379;28;92553;-86
2024/01/06 06:20:48;;;;;;;117.53;53.50;;;14.80;73.00;;;;;;4909951;28;91699;-85
2024/01/06 06:23:14;;;;;;;118.70;53.83;;;14.80;73.10;;;;;;4913719;28;89193;-85
2024/01/06 06:25:40;;;;;;;118.13;53.35;;;14.80;73.00;;;;;;4912514;28;89060;-85
2024/01/06 06:28:06;;;;;;;117.95;53.35;;;14.80;73.00;;;;;;4910856;28;92540;-85
2024/01/06 06:30:32;;;;;;;118.10;53.20;;;14.80;73.10;;;;;;4908883;28;93107;-85
2024/01/06 06:32:58;;;;;;;118.05;53.33;;;14.80;73.00;;;;;;4913159;28;89380;-85
2024/01/06 06:35:24;;;;;;;117.50;52.97;;;14.80;73.00;;;;;;4911785;28;89216;-85
2024/01/06 06:37:50;;;;;;;118.07;53.47;;;14.80;73.10;;;;;;4909459;28;92910;-86
2024/01/06 06:40:15;;;;;;;118.25;53.45;;;14.80;73.10;;;;;;4907099;28;93675;-86
2024/01/06 06:42:41;;;;;;;118.75;53.60;;;14.80;73.20;;;;;;4911211;28;89037;-85
2024/01/06 06:45:07;;;;;;;119.70;53.83;;;14.80;73.10;;;;;;4908709;28;89270;-84
2024/01/06 06:47:33;;;;;;;119.15;53.90;;;14.80;73.10;;;;;;4907430;28;95104;-85
2024/01/06 06:49:59;;;;;;;118.93;53.83;;;14.80;73.20;;;;;;4922562;28;93109;-85
2024/01/06 06:52:24;;;;;;;118.53;53.78;;;14.80;73.10;;;;;;4911120;28;89766;-83
2024/01/06 06:54:52;;;;;;;118.35;53.70;;;14.80;73.20;;;;;;4906664;28;88582;-83
2024/01/06 06:57:18;;;;;;;118.63;53.72;;;14.80;73.10;;;;;;4907447;28;92614;-83
2024/01/06 06:59:44;;;;;;;119.18;54.20;;;14.80;73.20;;;;;;4910569;28;89570;-83
2024/01/06 07:02:10;;;;;;;118.93;53.58;;;14.80;73.10;;;;;;4903570;28;90160;-85
2024/01/06 07:04:36;;;;;;;118.70;53.75;;;14.80;73.10;;;;;;4925399;28;89173;-86
2024/01/06 07:07:01;;;;;;;117.93;53.60;;;14.80;73.10;;;;;;4908589;28;92571;-85
2024/01/06 07:09:27;;;;;;;118.32;53.25;;;14.70;73.00;;;;;;4911726;28;89646;-85
2024/01/06 07:11:52;;;;;;;119.25;53.58;;;14.80;73.00;;;;;;4911169;28;89337;-85
2024/01/06 07:14:18;;;;;;;118.50;53.65;;;14.80;73.80;;;;;;4910136;28;89520;-85
2024/01/06 07:16:44;;;;;;;117.68;53.42;;;14.70;73.10;;;;;;4907959;28;91231;-86
2024/01/06 07:19:09;;;;;;;118.32;53.80;;;14.80;73.20;;;;;;4902840;28;89084;-85
2024/01/06 07:21:35;;;;;;;119.47;53.70;;;14.70;72.80;;;;;;4904216;28;90614;-84
2024/01/06 07:24:01;;;;;;;118.90;53.88;;;14.80;73.10;;;;;;4909669;28;89311;-85
2024/01/06 07:26:27;;;;;;;117.68;53.65;;;14.80;73.10;;;;;;4922536;28;93729;-85
2024/01/06 07:28:53;;;;;;;117.43;53.45;;;14.70;73.10;;;;;;4909497;28;90463;-85
2024/01/06 07:31:18;;;;;;;118.28;53.63;;;14.80;73.30;;;;;;4925469;28;89703;-85
2024/01/06 07:33:44;;;;;;;118.43;53.53;;;14.80;73.30;;;;;;4919198;28;89682;-85
2024/01/06 07:36:10;;;;;;;117.93;53.63;;;14.80;73.20;;;;;;4900457;28;93066;-85
2024/01/06 07:38:36;;;;;;;119.90;53.83;;;14.80;73.20;;;;;;4908207;28;89044;-85
2024/01/06 07:41:04;;;;;;;118.72;53.80;;;14.80;73.30;;;;;;4908722;28;89341;-85
2024/01/06 07:43:30;;;;;;;118.05;53.50;;;14.80;73.20;;;;;;4908124;28;89126;-86
2024/01/06 07:45:56;;;;;;;117.65;53.65;;;14.70;73.10;;;;;;4904950;28;92765;-85
2024/01/06 07:48:21;;;;;;;117.65;53.47;;;14.70;73.20;;;;;;4910148;28;89510;-85
2024/01/06 07:50:47;;;;;;;118.45;53.28;;;14.70;73.30;;;;;;4904105;28;90536;-85
2024/01/06 07:53:13;;;;;;;118.38;53.58;;;14.60;73.30;;;;;;4905364;28;89988;-85
2024/01/06 07:55:40;;;;;;;118.35;53.67;;;14.70;73.30;;;;;;4905103;28;89414;-85
2024/01/06 07:58:05;;;;;;;119.20;53.63;;;14.70;73.40;;;;;;4903797;28;89317;-86
2024/01/06 08:00:31;;;;;;;117.97;53.60;;;14.70;73.30;;;;;;4910013;28;89922;-85
2024/01/06 08:02:57;;;;;;;118.30;53.70;;;14.70;73.30;;;;;;4922521;28;89084;-83
2024/01/06 08:05:22;;;;;;;118.10;53.78;;;14.70;73.20;;;;;;4899464;28;93554;-82
2024/01/06 08:07:51;;;;;;;118.22;53.72;;;14.70;73.20;;;;;;4900397;28;92811;-85
2024/01/06 08:10:17;;;;;;;118.70;53.65;;;14.70;73.20;;;;;;4902380;28;89895;-83
2024/01/06 08:12:43;;;;;;;117.28;53.42;;;14.70;73.20;;;;;;4921409;28;90855;-84
2024/01/06 08:15:09;;;;;;;118.25;53.78;;;14.70;73.30;;;;;;4905527;28;90773;-84
2024/01/06 08:17:36;;;;;;;118.55;53.78;;;14.70;73.20;;;;;;4906615;28;93664;-84
2024/01/06 08:20:03;;;;;;;119.40;54.03;;;14.70;73.20;;;;;;4902735;28;89898;-84
2024/01/06 08:22:28;;;;;;;118.30;53.38;;;14.70;73.20;;;;;;4921317;28;90212;-83
2024/01/06 08:24:54;;;;;;;118.22;53.65;;;14.70;73.30;;;;;;4902353;28;94007;-84
2024/01/06 08:27:21;;;;;;;118.82;53.45;;;14.70;73.20;;;;;;4921778;28;92354;-83
2024/01/06 08:29:47;;;;;;;119.90;53.85;;;14.70;73.20;;;;;;4908556;28;89402;-84
2024/01/06 08:32:14;;;;;;;118.85;53.60;;;14.70;73.30;;;;;;4910388;28;88626;-83
2024/01/06 08:34:40;;;;;;;118.68;53.83;;;14.70;73.20;;;;;;4910291;28;92898;-84
2024/01/06 08:37:06;;;;;;;118.30;53.53;;;14.70;73.30;;;;;;4915854;28;89796;-84
2024/01/06 08:39:31;;;;;;;117.57;53.67;;;14.70;73.20;;;;;;4942403;28;89479;-84
2024/01/06 08:41:57;;;;;;;123.05;53.88;;;14.70;73.00;;;;;;4940714;28;88543;-84
2024/01/06 08:44:23;;;;;;;118.55;53.72;;;14.60;72.90;;;;;;4926606;28;92468;-84
2024/01/06 08:46:48;;;;;;;118.18;53.75;;;14.60;73.10;;;;;;4914038;28;92815;-82
2024/01/06 08:49:14;;;;;;;119.90;54.10;;;14.60;73.20;;;;;;4913137;28;89147;-83
2024/01/06 08:51:40;;;;;;;117.95;53.42;;;14.60;73.30;;;;;;4914048;28;89163;-83
2024/01/06 08:54:06;;;;;;;118.70;53.53;;;14.60;73.20;;;;;;4916850;28;93185;-82
2024/01/06 08:56:33;;;;;;;117.10;53.55;;;14.60;73.10;;;;;;4906982;28;93262;-84
2024/01/06 08:58:59;;;;;;;118.25;53.63;;;14.60;73.10;;;;;;4923700;28;89095;-82
2024/01/06 09:01:25;;;;;;;118.18;53.72;;;14.60;73.00;;;;;;4906884;28;89307;-81
2024/01/06 09:03:50;;;;;;;118.75;53.83;;;14.60;73.10;;;;;;4913840;28;90743;-81
2024/01/06 09:06:16;;;;;;;117.32;53.42;;;14.50;73.00;;;;;;4907965;28;94168;-83
2024/01/06 09:08:42;;;;;;;117.80;53.35;;;14.50;73.20;;;;;;4909968;28;89229;-83
2024/01/06 09:11:08;;;;;;;120.05;54.08;;;14.50;73.20;;;;;;4907391;28;89404;-83
2024/01/06 09:13:33;;;;;;;120.32;53.92;;;14.60;73.10;;;;;;4910260;28;93712;-87
2024/01/06 09:16:00;;;;;;;119.50;54.33;;;14.70;72.80;;;;;;4904654;28;92288;-86
2024/01/06 09:18:27;;;;;;;120.63;54.13;;;14.80;72.10;;;;;;4911313;28;89366;-86
2024/01/06 09:20:53;;;;;;;118.70;53.70;;;14.90;72.10;;;;;;4909278;28;90705;-84
2024/01/06 09:23:20;;;;;;;122.55;53.92;;;14.90;72.20;;;;;;4919801;28;91960;-84
2024/01/06 09:25:49;;;;;;;119.50;53.50;;;14.90;72.50;;;;;;4899037;28;92038;-83
2024/01/06 09:28:15;;;;;;;120.53;53.65;;;14.90;72.30;;;;;;4909686;28;90291;-84
2024/01/06 09:30:41;;;;;;;118.75;53.60;;;14.90;72.10;;;;;;4909546;28;90638;-83
2024/01/06 09:33:08;;;;;;;118.88;54.03;;;14.90;72.50;;;;;;4909922;28;91545;-85
2024/01/06 09:35:34;;;;;;;119.35;53.67;;;15.00;72.30;;;;;;4907101;28;93469;-83
2024/01/06 09:37:59;;;;;;;122.28;53.80;;;15.00;72.50;;;;;;4905371;28;89393;-84
2024/01/06 09:40:25;;;;;;;120.28;53.90;;;15.00;72.70;;;;;;4904744;28;89097;-83
2024/01/06 09:42:53;;;;;;;127.63;54.22;;;14.90;72.50;;;;;;4917295;28;92675;-83
2024/01/06 09:45:20;;;;;;;123.57;54.17;;;14.90;73.10;;;;;;4921615;28;92127;-83
2024/01/06 09:47:49;;;;;;;123.72;54.03;;;14.80;73.40;;;;;;4907962;28;89026;-83
2024/01/06 09:50:21;;;;;;;120.47;54.08;;;14.80;73.90;;;;;;4912429;28;89220;-84
2024/01/06 09:52:56;;;;;;;120.30;54.40;;;14.80;73.60;;;;;;4908534;28;90717;-84
2024/01/06 09:55:26;;;;;;;122.47;53.65;;;14.80;73.80;;;;;;4898716;28;90706;-87
2024/01/06 09:57:53;;;;;;;125.97;54.42;;;14.90;74.00;;;;;;4904316;28;89324;-87
2024/01/06 10:00:20;;;;;;;122.50;54.70;;;14.90;74.30;;;;;;4903358;28;89354;-88
2024/01/06 10:02:48;;;;;;;119.15;53.85;;;15.10;73.90;;;;;;4907385;28;92329;-84
2024/01/06 10:05:15;;;;;;;123.45;56.47;;;15.20;74.60;;;;;;4902377;28;92113;-84
2024/01/06 10:07:45;;;;;;;125.65;55.97;;;15.20;73.00;;;;;;4908755;28;90575;-85
2024/01/06 10:10:10;;;;;;;122.93;55.55;;;15.20;73.10;;;;;;4922499;28;88495;-84
2024/01/06 10:12:42;;;;;;;124.45;55.22;;;15.20;73.20;;;;;;4909496;28;92400;-86
2024/01/06 10:15:09;;;;;;;127.00;55.80;;;15.30;73.40;;;;;;4910616;28;91312;-85
2024/01/06 10:17:39;;;;;;;125.63;57.38;;;15.40;73.40;;;;;;4924847;28;89907;-84
2024/01/06 10:20:09;;;;;;;124.85;57.47;;;15.40;73.50;;;;;;4908316;28;89815;-87
2024/01/06 10:22:36;;;;;;;127.63;56.75;;;15.50;73.40;;;;;;4906504;28;92364;-86
2024/01/06 10:25:04;;;;;;;126.90;57.17;;;15.50;73.80;;;;;;4916761;28;92269;-85
2024/01/06 10:27:30;;;;;;;125.18;57.15;;;15.50;73.90;;;;;;4906636;28;89241;-88
2024/01/06 10:29:56;;;;;;;126.38;57.28;;;15.60;74.00;;;;;;4920761;28;90361;-87
2024/01/06 10:32:25;;;;;;;127.03;57.45;;;15.60;73.50;;;;;;4907750;28;89268;-87
2024/01/06 10:34:51;;;;;;;126.55;56.72;;;15.60;73.50;;;;;;4910028;28;89039;-87
2024/01/06 10:37:17;;;;;;;126.68;57.40;;;15.70;73.40;;;;;;4905746;28;89459;-85
2024/01/06 10:39:43;;;;;;;129.38;58.42;;;15.70;73.00;;;;;;4907635;28;89293;-85
2024/01/06 10:42:12;;;;;;;126.32;58.47;;;15.80;72.40;;;;;;4907037;28;91058;-88
2024/01/06 10:44:39;;;;;;;128.90;58.92;;;15.80;72.50;;;;;;4912115;28;90658;-89
2024/01/06 10:47:06;;;;;;;131.50;58.10;;;15.80;72.70;;;;;;4898488;28;90046;-84
2024/01/06 10:49:33;;;;;;;126.90;58.38;;;15.90;72.60;;;;;;4910466;28;90938;-90
2024/01/06 10:52:00;;;;;;;128.02;57.97;;;15.90;73.20;;;;;;4927030;28;89962;-90
2024/01/06 10:54:28;;;;;;;127.90;58.90;;;15.90;73.20;;;;;;4909509;28;90094;-87
2024/01/06 10:56:55;;;;;;;127.13;58.22;;;16.00;73.40;;;;;;4901556;28;90304;-86
2024/01/06 10:59:24;;;;;;;127.20;57.35;;;16.00;72.50;;;;;;4903664;28;88422;-86
2024/01/06 11:01:52;;;;;;;128.73;58.17;;;16.00;72.50;;;;;;4904947;28;91675;-86
2024/01/06 11:04:19;;;;;;;129.75;58.08;;;16.00;72.10;;;;;;4903808;28;91157;-87
2024/01/06 11:06:45;;;;;;;128.65;58.15;;;16.00;71.80;;;;;;4922223;28;95017;-86
2024/01/06 11:09:26;;;;;;;129.73;57.92;;;16.00;72.10;;;;;;4908080;28;89339;-90
2024/01/06 11:11:53;;;;;;;;;;;16.10;72.30;;;;;;4906813;28;89672;-89
2024/01/06 11:14:20;;;;;;;132.90;57.85;;;16.10;72.00;;;;;;4910928;28;89318;-84
2024/01/06 11:16:45;;;;;;;128.63;57.38;;;16.10;72.20;;;;;;4910603;28;89908;-84
2024/01/06 11:19:36;;;;;;;128.60;57.38;;;16.10;71.90;;;;;;4909418;28;89381;-85
2024/01/06 11:22:21;;;;;;;127.70;57.03;;;16.20;71.80;;;;;;4905526;28;89858;-88
2024/01/06 11:24:49;;;;;;;127.47;57.55;;;16.20;71.80;;;;;;4913184;28;90031;-86
2024/01/06 11:27:29;;;;;;;126.95;57.08;;;16.20;72.10;;;;;;4923967;28;89495;-85
2024/01/06 11:29:57;;;;;;;125.40;57.07;;;16.20;72.50;;;;;;4900730;28;89341;-85
2024/01/06 11:32:35;;;;;;;128.50;56.80;;;16.30;72.40;;;;;;4905184;28;95064;-84
2024/01/06 11:35:19;;;;;;;130.90;56.63;;;16.40;72.60;;;;;;4904510;28;91041;-88
2024/01/06 11:37:45;;;;;;;129.18;57.33;;;16.40;72.80;;;;;;4911306;28;89837;-89
2024/01/06 11:40:25;;;;;;;124.20;56.38;;;16.40;72.60;;;;;;4906711;28;89586;-89
2024/01/06 11:43:15;;;;;;;126.65;56.72;;;16.40;72.50;;;;;;4919058;28;92016;-87
2024/01/06 11:45:42;;;;;;;125.28;56.60;;;16.40;71.80;;;;;;4910238;28;90551;-92
2024/01/06 11:48:09;;;;;;;124.78;56.33;;;16.40;72.00;;;;;;4927142;23;89505;-37
2024/01/06 11:50:36;;;;;;;127.65;57.05;;;16.50;72.70;;;;;;4890006;28;88936;-39
2024/01/06 11:53:03;;;;;;;126.50;56.40;;;16.50;72.00;;;;;;4897955;28;90777;-40
2024/01/06 11:55:31;;;;;;;124.97;56.47;;;16.50;71.90;;;;;;4893209;28;90606;-39
2024/01/06 11:58:01;;;;;;;128.18;56.70;;;16.50;72.10;;;;;;4893089;28;90925;-39
2024/01/06 12:00:27;;;;;;;125.68;56.22;;;16.50;71.80;;;;;;4902923;28;90715;-39
2024/01/06 12:02:57;;;;;;;126.88;56.50;;;16.50;71.70;;;;;;4890763;28;89593;-39
2024/01/06 12:05:24;;;;;;;126.65;57.05;;;16.50;71.40;;;;;;4896184;28;90298;-39
2024/01/06 12:07:58;;;;;;;126.68;56.78;;;16.50;71.60;;;;;;4897428;28;89487;-39
2024/01/06 12:10:26;;;;;;;126.50;56.88;;;16.60;71.60;;;;;;4897953;28;90321;-40
2024/01/06 12:12:59;;;;;;;129.05;57.55;;;16.60;71.80;;;;;;4905181;23;89760;-86
2024/01/06 12:15:25;;;;;;;127.30;57.72;;;16.70;71.30;;;;;;4884494;28;89996;-82